Time;durP1;ratioP1;P1;durP2;ratioP2;P2;SDS_P1;SDS_P2;PMS_P1;PMS_P2;Temp;Humidity;BMP_temperature;BMP_pressure;BME280_temperature;BME280_humidity;BME280_pressure;Samples;Min_cycle;Max_cycle;Signal;HPM_P1;HPM_P2
2021/01/23 00:01:13;;;;;;;13.07;8.52;;;;;;;;;;5033851;28;20440;-76
2021/01/23 00:03:39;;;;;;;12.07;8.50;;;;;;;;;;5033735;28;20211;-77
2021/01/23 00:06:05;;;;;;;9.47;7.70;;;;;;;;;;5033704;28;20790;-76
2021/01/23 00:08:31;;;;;;;16.38;9.68;;;;;;;;;;5033123;28;20432;-76
2021/01/23 00:10:57;;;;;;;11.50;8.73;;;;;;;;;;5033683;28;20225;-77
2021/01/23 00:13:23;;;;;;;12.48;8.98;;;;;;;;;;5033650;28;20219;-77
2021/01/23 00:15:49;;;;;;;10.70;7.77;;;;;;;;;;5033724;28;20570;-77
2021/01/23 00:18:15;;;;;;;10.70;8.70;;;;;;;;;;5033172;28;20430;-77
2021/01/23 00:20:41;;;;;;;14.25;8.50;;;;;;;;;;5033435;28;20635;-77
2021/01/23 00:23:07;;;;;;;14.63;9.23;;;;;;;;;;5033591;28;20183;-76
2021/01/23 00:25:33;;;;;;;12.50;9.20;;;;;;;;;;5033469;28;20922;-77
2021/01/23 00:27:59;;;;;;;16.38;9.25;;;;;;;;;;5033055;28;20430;-76
2021/01/23 00:30:25;;;;;;;13.10;8.18;;;;;;;;;;5033298;28;20576;-76
2021/01/23 00:32:51;;;;;;;10.38;8.50;;;;;;;;;;5033171;28;20210;-76
2021/01/23 00:35:17;;;;;;;13.00;9.35;;;;;;;;;;5033336;28;20209;-76
2021/01/23 00:37:43;;;;;;;11.30;8.43;;;;;;;;;;5033141;28;20191;-76
2021/01/23 00:40:09;;;;;;;18.15;8.38;;;;;;;;;;5032144;28;20969;-76
2021/01/23 00:42:35;;;;;;;11.32;8.73;;;;;;;;;;5033116;28;20620;-76
2021/01/23 00:45:01;;;;;;;9.90;7.50;;;;;;;;;;5033151;28;20185;-76
2021/01/23 00:47:27;;;;;;;17.83;9.10;;;;;;;;;;5032917;28;20425;-76
2021/01/23 00:49:53;;;;;;;13.80;8.38;;;;;;;;;;5033225;28;20204;-76
2021/01/23 00:52:19;;;;;;;11.68;9.18;;;;;;;;;;5033040;28;20190;-76
2021/01/23 00:54:45;;;;;;;11.90;7.93;;;;;;;;;;5035049;28;20634;-77
2021/01/23 00:57:11;;;;;;;11.60;9.10;;;;;;;;;;5036796;28;20510;-77
2021/01/23 00:59:37;;;;;;;16.85;8.65;;;;;;;;;;5037418;28;20402;-76
2021/01/23 01:02:03;;;;;;;12.50;8.57;;;;;;;;;;5037142;28;20531;-77
2021/01/23 01:04:29;;;;;;;12.35;8.30;;;;;;;;;;5037305;28;20484;-77
2021/01/23 01:06:55;;;;;;;10.43;8.23;;;;;;;;;;5036538;28;20170;-77
2021/01/23 01:09:21;;;;;;;9.70;7.60;;;;;;;;;;5036808;28;20901;-76
2021/01/23 01:11:47;;;;;;;8.67;6.70;;;;;;;;;;5037001;28;20198;-76
2021/01/23 01:14:13;;;;;;;13.25;9.13;;;;;;;;;;5037258;28;20409;-76
2021/01/23 01:16:39;;;;;;;10.68;7.82;;;;;;;;;;5036613;28;20174;-77
2021/01/23 01:19:05;;;;;;;12.50;8.10;;;;;;;;;;5036516;28;20192;-77
2021/01/23 01:21:31;;;;;;;13.30;8.63;;;;;;;;;;5036816;28;20240;-76
2021/01/23 01:23:57;;;;;;;12.37;8.13;;;;;;;;;;5036787;28;20188;-76
2021/01/23 01:26:22;;;;;;;12.00;8.32;;;;;;;;;;5036714;28;20400;-76
2021/01/23 01:28:48;;;;;;;12.27;8.15;;;;;;;;;;5036250;28;20228;-77
2021/01/23 01:31:14;;;;;;;14.17;8.87;;;;;;;;;;5036480;28;20232;-77
2021/01/23 01:33:40;;;;;;;10.15;8.18;;;;;;;;;;5035336;28;21013;-76
2021/01/23 01:36:06;;;;;;;12.00;7.10;;;;;;;;;;5036531;28;20258;-76
2021/01/23 01:38:32;;;;;;;8.35;6.97;;;;;;;;;;5036203;28;20218;-76
2021/01/23 01:40:58;;;;;;;13.75;8.05;;;;;;;;;;5036510;28;20207;-76
2021/01/23 01:43:24;;;;;;;9.60;7.35;;;;;;;;;;5036367;28;20209;-76
2021/01/23 01:45:50;;;;;;;11.63;6.60;;;;;;;;;;5036312;28;20217;-76
2021/01/23 01:48:16;;;;;;;10.77;7.85;;;;;;;;;;5036054;28;20198;-76
2021/01/23 01:50:42;;;;;;;8.80;6.78;;;;;;;;;;5036163;28;20250;-76
2021/01/23 01:53:09;;;;;;;11.45;7.10;;;;;;;;;;5036127;28;20207;-78
2021/01/23 01:55:35;;;;;;;13.45;6.53;;;;;;;;;;5036101;28;20618;-76
2021/01/23 01:58:02;;;;;;;15.25;7.35;;;;;;;;;;5035747;28;20192;-76
2021/01/23 02:00:28;;;;;;;8.65;6.95;;;;;;;;;;5036366;28;20700;-76
2021/01/23 02:03:12;;;;;;;9.10;6.78;;;;;;;;;;5035985;28;20174;-76
2021/01/23 02:05:57;;;;;;;7.80;6.43;;;;;;;;;;5034388;28;20176;-76
2021/01/23 02:08:42;;;;;;;12.25;6.00;;;;;;;;;;5035614;28;20565;-76
2021/01/23 02:11:26;;;;;;;10.52;7.07;;;;;;;;;;5035744;28;20198;-78
2021/01/23 02:13:54;;;;;;;11.90;6.43;;;;;;;;;;5036084;28;20530;-76
2021/01/23 02:16:25;;;;;;;7.50;6.10;;;;;;;;;;5035783;28;20206;-76
2021/01/23 02:18:56;;;;;;;8.90;6.20;;;;;;;;;;5035287;28;20220;-76
2021/01/23 02:21:31;;;;;;;8.23;5.57;;;;;;;;;;5035588;28;20228;-76
2021/01/23 02:23:59;;;;;;;9.15;5.75;;;;;;;;;;5035545;28;20178;-76
2021/01/23 02:26:35;;;;;;;7.55;5.97;;;;;;;;;;5035631;28;20188;-76
2021/01/23 02:29:08;;;;;;;11.75;6.88;;;;;;;;;;5035285;28;20248;-76
2021/01/23 02:31:35;;;;;;;6.57;5.38;;;;;;;;;;5035418;28;20206;-76
2021/01/23 02:34:02;;;;;;;8.80;6.43;;;;;;;;;;5035475;28;20197;-76
2021/01/23 02:36:29;;;;;;;9.43;6.32;;;;;;;;;;5035462;28;20249;-76
2021/01/23 02:38:55;;;;;;;7.30;5.63;;;;;;;;;;5035568;28;20190;-76
2021/01/23 02:41:22;;;;;;;9.85;6.68;;;;;;;;;;5035301;28;20186;-76
2021/01/23 02:43:48;;;;;;;14.27;6.78;;;;;;;;;;5035439;28;20178;-76
2021/01/23 02:46:17;;;;;;;8.93;5.55;;;;;;;;;;5035386;28;20181;-76
2021/01/23 02:48:43;;;;;;;17.13;5.97;;;;;;;;;;5035005;28;20218;-76
2021/01/23 02:51:31;;;;;;;7.75;6.10;;;;;;;;;;5035181;28;20533;-76
2021/01/23 02:54:01;;;;;;;7.43;6.40;;;;;;;;;;5035009;28;20168;-76
2021/01/23 02:56:27;;;;;;;8.70;6.35;;;;;;;;;;5034966;28;20174;-77
2021/01/23 02:58:55;;;;;;;7.00;5.95;;;;;;;;;;5034696;28;20310;-76
2021/01/23 03:01:23;;;;;;;7.93;6.00;;;;;;;;;;5034946;28;20642;-76
2021/01/23 03:03:53;;;;;;;7.38;5.57;;;;;;;;;;5034771;28;20509;-77
2021/01/23 03:06:19;;;;;;;6.82;5.82;;;;;;;;;;5034972;28;20176;-77
2021/01/23 03:08:46;;;;;;;8.40;5.28;;;;;;;;;;5034355;28;20230;-76
2021/01/23 03:11:12;;;;;;;10.88;7.13;;;;;;;;;;5034603;28;20220;-76
2021/01/23 03:13:38;;;;;;;9.75;6.20;;;;;;;;;;5034778;28;20195;-76
2021/01/23 03:16:04;;;;;;;5.70;5.15;;;;;;;;;;5034651;28;20181;-77
2021/01/23 03:18:30;;;;;;;7.15;5.53;;;;;;;;;;5033730;28;20194;-77
2021/01/23 03:20:56;;;;;;;7.60;5.57;;;;;;;;;;5034603;28;20159;-76
2021/01/23 03:23:22;;;;;;;10.37;5.73;;;;;;;;;;5034552;28;20261;-76
2021/01/23 03:25:48;;;;;;;6.37;5.30;;;;;;;;;;5034352;28;20408;-77
2021/01/23 03:28:14;;;;;;;10.25;5.32;;;;;;;;;;5034045;28;20522;-76
2021/01/23 03:30:42;;;;;;;7.35;4.72;;;;;;;;;;5034561;28;20549;-76
2021/01/23 03:33:08;;;;;;;7.00;5.65;;;;;;;;;;5034493;28;20216;-76
2021/01/23 03:35:34;;;;;;;7.87;5.50;;;;;;;;;;5034424;28;20537;-76
2021/01/23 03:38:00;;;;;;;8.37;5.60;;;;;;;;;;5033953;28;20512;-78
2021/01/23 03:40:27;;;;;;;9.03;5.90;;;;;;;;;;5034251;28;20475;-76
2021/01/23 03:42:53;;;;;;;7.30;5.28;;;;;;;;;;5034099;28;20405;-76
2021/01/23 03:45:19;;;;;;;11.70;5.33;;;;;;;;;;5034199;28;20174;-76
2021/01/23 03:47:45;;;;;;;10.30;7.05;;;;;;;;;;5033685;28;20462;-76
2021/01/23 03:50:11;;;;;;;8.13;5.05;;;;;;;;;;5033960;28;20185;-78
2021/01/23 03:52:37;;;;;;;10.30;5.45;;;;;;;;;;5033915;28;20210;-77
2021/01/23 03:55:07;;;;;;;7.88;5.40;;;;;;;;;;5034012;28;20171;-76
2021/01/23 03:57:33;;;;;;;8.40;5.80;;;;;;;;;;5033550;28;20553;-76
2021/01/23 03:59:59;;;;;;;15.55;6.68;;;;;;;;;;5033807;28;20695;-76
2021/01/23 04:02:25;;;;;;;8.63;5.30;;;;;;;;;;5033540;28;20362;-76
2021/01/23 04:04:51;;;;;;;7.35;4.75;;;;;;;;;;5033712;28;20415;-76
2021/01/23 04:07:17;;;;;;;6.72;5.75;;;;;;;;;;5033384;28;20209;-76
2021/01/23 04:09:43;;;;;;;7.95;5.47;;;;;;;;;;5033555;28;20607;-76
2021/01/23 04:12:09;;;;;;;8.50;5.43;;;;;;;;;;5033640;28;20253;-77
2021/01/23 04:14:35;;;;;;;8.13;5.85;;;;;;;;;;5033530;28;20267;-76
2021/01/23 04:17:01;;;;;;;10.48;5.47;;;;;;;;;;5033148;28;20203;-76
2021/01/23 04:19:27;;;;;;;8.68;4.80;;;;;;;;;;5033765;28;20202;-76
2021/01/23 04:21:53;;;;;;;8.50;6.18;;;;;;;;;;5033825;28;20532;-76
2021/01/23 04:24:19;;;;;;;7.57;5.53;;;;;;;;;;5033457;28;20174;-77
2021/01/23 04:26:45;;;;;;;9.03;6.63;;;;;;;;;;5033185;28;20912;-77
2021/01/23 04:29:11;;;;;;;10.05;6.07;;;;;;;;;;5032766;28;20406;-76
2021/01/23 04:31:37;;;;;;;9.25;5.03;;;;;;;;;;5033231;28;20696;-76
2021/01/23 04:34:03;;;;;;;9.05;5.40;;;;;;;;;;5033532;28;20179;-76
2021/01/23 04:36:29;;;;;;;8.75;6.68;;;;;;;;;;5033194;28;20174;-77
2021/01/23 04:38:55;;;;;;;7.65;5.63;;;;;;;;;;5032815;28;20736;-76
2021/01/23 04:41:21;;;;;;;11.55;5.40;;;;;;;;;;5033365;28;20176;-76
2021/01/23 04:43:47;;;;;;;9.02;5.90;;;;;;;;;;5033493;28;20176;-76
2021/01/23 04:46:13;;;;;;;10.32;5.70;;;;;;;;;;5033434;28;20250;-76
2021/01/23 04:48:39;;;;;;;7.50;5.85;;;;;;;;;;5032755;28;20243;-77
2021/01/23 04:51:05;;;;;;;9.52;5.53;;;;;;;;;;5033223;28;20191;-76
2021/01/23 04:53:32;;;;;;;9.47;5.90;;;;;;;;;;5033106;28;20268;-76
2021/01/23 04:55:58;;;;;;;7.60;5.70;;;;;;;;;;5033209;28;20415;-76
2021/01/23 04:58:24;;;;;;;7.03;5.75;;;;;;;;;;5032793;28;20556;-76
2021/01/23 05:00:50;;;;;;;7.50;5.43;;;;;;;;;;5032916;28;20185;-77
2021/01/23 05:03:16;;;;;;;8.30;6.15;;;;;;;;;;5033041;28;20177;-76
2021/01/23 05:05:42;;;;;;;10.88;6.47;;;;;;;;;;5033016;28;20175;-76
2021/01/23 05:08:12;;;;;;;8.70;5.40;;;;;;;;;;5032623;28;20201;-76
2021/01/23 05:10:38;;;;;;;10.00;5.40;;;;;;;;;;5032791;28;20826;-76
2021/01/23 05:13:15;;;;;;;8.38;6.28;;;;;;;;;;5032784;28;20243;-76
2021/01/23 05:15:42;;;;;;;9.77;6.10;;;;;;;;;;5032853;28;20268;-76
2021/01/23 05:18:09;;;;;;;8.38;6.10;;;;;;;;;;5032451;28;20677;-75
2021/01/23 05:20:41;;;;;;;7.80;5.65;;;;;;;;;;5032938;28;20171;-75
2021/01/23 05:23:10;;;;;;;9.05;6.20;;;;;;;;;;5032869;28;20550;-75
2021/01/23 05:25:37;;;;;;;9.45;6.53;;;;;;;;;;5032816;28;20196;-75
2021/01/23 05:28:04;;;;;;;10.15;5.47;;;;;;;;;;5032358;28;20708;-75
2021/01/23 05:30:40;;;;;;;7.95;5.20;;;;;;;;;;5032792;28;20217;-75
2021/01/23 05:33:08;;;;;;;13.98;6.13;;;;;;;;;;5032581;28;20219;-76
2021/01/23 05:35:35;;;;;;;9.85;6.10;;;;;;;;;;5032761;28;20176;-75
2021/01/23 05:38:16;;;;;;;8.10;5.28;;;;;;;;;;5032596;28;20271;-76
2021/01/23 05:40:42;;;;;;;14.68;5.63;;;;;;;;;;5034600;28;20180;-76
2021/01/23 05:43:08;;;;;;;8.23;6.07;;;;;;;;;;5036198;28;20184;-76
2021/01/23 05:45:34;;;;;;;9.20;6.28;;;;;;;;;;5036243;28;20412;-76
2021/01/23 05:48:08;;;;;;;10.80;6.82;;;;;;;;;;5035890;28;20200;-77
2021/01/23 05:50:34;;;;;;;8.57;6.22;;;;;;;;;;5036167;28;20179;-76
2021/01/23 05:53:00;;;;;;;11.23;6.57;;;;;;;;;;5036111;28;20216;-76
2021/01/23 05:55:27;;;;;;;7.22;5.43;;;;;;;;;;5035981;28;20181;-77
2021/01/23 05:57:54;;;;;;;8.55;6.00;;;;;;;;;;5035982;28;20197;-76
2021/01/23 06:00:22;;;;;;;9.35;6.22;;;;;;;;;;5036111;28;20260;-76
2021/01/23 06:02:48;;;;;;;8.95;5.57;;;;;;;;;;5036088;28;20180;-76
2021/01/23 06:05:14;;;;;;;9.55;5.50;;;;;;;;;;5035852;28;20188;-77
2021/01/23 06:07:40;;;;;;;8.85;5.10;;;;;;;;;;5035488;28;20316;-75
2021/01/23 06:10:21;;;;;;;8.90;6.10;;;;;;;;;;5035890;28;20275;-76
2021/01/23 06:12:48;;;;;;;9.52;5.78;;;;;;;;;;5035707;28;20458;-76
2021/01/23 06:15:46;;;;;;;11.13;5.85;;;;;;;;;;5035741;28;20169;-76
2021/01/23 06:18:24;;;;;;;9.55;5.47;;;;;;;;;;5012979;28;20681;-76
2021/01/23 06:20:52;;;;;;;9.00;5.90;;;;;;;;;;5035757;28;20177;-76
2021/01/23 06:23:21;;;;;;;14.25;5.70;;;;;;;;;;5035944;28;20207;-77
2021/01/23 06:25:50;;;;;;;8.30;5.43;;;;;;;;;;5035539;28;20252;-77
2021/01/23 06:28:22;;;;;;;8.60;6.20;;;;;;;;;;5035248;28;20248;-76
2021/01/23 06:30:49;;;;;;;7.47;5.57;;;;;;;;;;5035532;28;20184;-77
2021/01/23 06:33:24;;;;;;;10.15;5.10;;;;;;;;;;5035579;28;20213;-77
2021/01/23 06:36:02;;;;;;;7.03;5.25;;;;;;;;;;5035367;28;20203;-77
2021/01/23 06:38:29;;;;;;;14.18;5.70;;;;;;;;;;5035161;28;20201;-76
2021/01/23 06:40:55;;;;;;;12.48;5.78;;;;;;;;;;5035498;28;20229;-76
2021/01/23 06:43:21;;;;;;;8.55;6.13;;;;;;;;;;5035261;28;20261;-77
2021/01/23 06:45:47;;;;;;;9.38;5.68;;;;;;;;;;5035290;28;20178;-77
2021/01/23 06:48:14;;;;;;;14.57;6.53;;;;;;;;;;5035045;28;20236;-76
2021/01/23 06:50:42;;;;;;;9.70;6.53;;;;;;;;;;5035379;28;20263;-76
2021/01/23 06:53:20;;;;;;;7.95;4.93;;;;;;;;;;5034349;28;20691;-76
2021/01/23 06:55:53;;;;;;;12.00;6.78;;;;;;;;;;5035086;28;20180;-77
2021/01/23 06:58:26;;;;;;;16.73;6.55;;;;;;;;;;5034952;28;20561;-76
2021/01/23 07:01:02;;;;;;;10.00;6.05;;;;;;;;;;5035113;28;20212;-76
2021/01/23 07:03:28;;;;;;;9.38;6.65;;;;;;;;;;5035009;28;20174;-76
2021/01/23 07:06:00;;;;;;;7.25;5.85;;;;;;;;;;5034718;28;20217;-76
2021/01/23 07:08:30;;;;;;;14.07;7.68;;;;;;;;;;5034437;28;20217;-76
2021/01/23 07:11:05;;;;;;;9.25;5.90;;;;;;;;;;5034701;28;20232;-76
2021/01/23 07:13:31;;;;;;;8.95;5.93;;;;;;;;;;5034702;28;20189;-77
2021/01/23 07:15:57;;;;;;;10.13;5.90;;;;;;;;;;5034576;28;20257;-76
2021/01/23 07:18:25;;;;;;;10.00;6.40;;;;;;;;;;5034286;28;20201;-77
2021/01/23 07:20:51;;;;;;;8.77;5.85;;;;;;;;;;5034661;28;20174;-77
2021/01/23 07:23:18;;;;;;;10.00;6.85;;;;;;;;;;5034907;28;20263;-76
2021/01/23 07:25:44;;;;;;;11.73;6.50;;;;;;;;;;5034685;28;20177;-77
2021/01/23 07:28:10;;;;;;;7.90;6.27;;;;;;;;;;5035466;28;20197;-76
2021/01/23 07:30:36;;;;;;;7.38;5.78;;;;;;;;;;5034301;28;20490;-76
2021/01/23 07:33:02;;;;;;;8.98;7.05;;;;;;;;;;5034306;28;20316;-76
2021/01/23 07:35:36;;;;;;;9.98;6.35;;;;;;;;;;5034425;28;20538;-77
2021/01/23 07:38:03;;;;;;;10.50;6.32;;;;;;;;;;5034021;28;20194;-76
2021/01/23 07:40:30;;;;;;;8.73;6.47;;;;;;;;;;5034619;28;20509;-77
2021/01/23 07:43:01;;;;;;;9.40;6.78;;;;;;;;;;5034252;28;20231;-76
2021/01/23 07:45:27;;;;;;;7.43;5.75;;;;;;;;;;5034246;28;20206;-76
2021/01/23 07:48:03;;;;;;;8.55;5.63;;;;;;;;;;5033863;28;20197;-76
2021/01/23 07:50:42;;;;;;;9.70;6.72;;;;;;;;;;5034270;28;20215;-76
2021/01/23 07:53:16;;;;;;;7.88;5.85;;;;;;;;;;5034276;28;20224;-75
2021/01/23 07:55:42;;;;;;;8.93;6.63;;;;;;;;;;5033866;28;20506;-75
2021/01/23 07:58:09;;;;;;;8.75;6.10;;;;;;;;;;5033394;28;20587;-76
2021/01/23 08:00:35;;;;;;;7.47;5.85;;;;;;;;;;5033844;28;20169;-75
2021/01/23 08:03:01;;;;;;;7.70;6.18;;;;;;;;;;5033978;28;20622;-75
2021/01/23 08:05:40;;;;;;;9.57;5.95;;;;;;;;;;5033998;28;20185;-75
2021/01/23 08:08:06;;;;;;;11.40;6.00;;;;;;;;;;5033458;28;20292;-76
2021/01/23 08:10:36;;;;;;;6.13;5.37;;;;;;;;;;5033534;28;20615;-76
2021/01/23 08:13:03;;;;;;;10.00;5.47;;;;;;;;;;5033654;28;20460;-76
2021/01/23 08:15:29;;;;;;;9.02;6.15;;;;;;;;;;5033655;28;20216;-75
2021/01/23 08:17:56;;;;;;;9.30;6.22;;;;;;;;;;5033314;28;20196;-75
2021/01/23 08:20:34;;;;;;;9.55;6.10;;;;;;;;;;5033463;28;20165;-75
2021/01/23 08:23:05;;;;;;;9.43;6.13;;;;;;;;;;5033724;28;20181;-75
2021/01/23 08:25:32;;;;;;;8.10;5.57;;;;;;;;;;5033523;28;20501;-76
2021/01/23 08:27:59;;;;;;;7.70;5.38;;;;;;;;;;5033154;28;20541;-75
2021/01/23 08:30:26;;;;;;;8.40;5.50;;;;;;;;;;5033368;28;20170;-76
2021/01/23 08:32:53;;;;;;;8.02;5.50;;;;;;;;;;5033178;28;20200;-75
2021/01/23 08:35:19;;;;;;;9.73;5.50;;;;;;;;;;5033682;28;20188;-76
2021/01/23 08:37:45;;;;;;;11.23;7.13;;;;;;;;;;5033070;28;20196;-75
2021/01/23 08:40:12;;;;;;;12.13;7.75;;;;;;;;;;5033528;28;20168;-75
2021/01/23 08:42:38;;;;;;;9.35;6.32;;;;;;;;;;5033244;28;20185;-76
2021/01/23 08:45:07;;;;;;;11.20;6.28;;;;;;;;;;5033247;28;20646;-76
2021/01/23 08:47:33;;;;;;;7.32;5.80;;;;;;;;;;5032959;28;20205;-75
2021/01/23 08:49:59;;;;;;;9.55;6.07;;;;;;;;;;5033185;28;20187;-75
2021/01/23 08:52:25;;;;;;;8.85;5.95;;;;;;;;;;5033477;28;20202;-75
2021/01/23 08:54:51;;;;;;;7.80;5.93;;;;;;;;;;5033312;28;20206;-75
2021/01/23 08:57:17;;;;;;;10.27;6.80;;;;;;;;;;5032933;28;20197;-76
2021/01/23 08:59:43;;;;;;;8.27;6.45;;;;;;;;;;5033024;28;20495;-75
2021/01/23 09:02:10;;;;;;;7.38;5.45;;;;;;;;;;5033168;28;20254;-77
2021/01/23 09:04:37;;;;;;;6.47;5.00;;;;;;;;;;5033108;28;20176;-77
2021/01/23 09:07:03;;;;;;;8.98;6.18;;;;;;;;;;5032754;28;20190;-76
2021/01/23 09:09:29;;;;;;;7.72;6.20;;;;;;;;;;5032787;28;20185;-77
2021/01/23 09:11:55;;;;;;;12.32;7.82;;;;;;;;;;5032981;28;20269;-77
2021/01/23 09:14:21;;;;;;;8.50;5.53;;;;;;;;;;5033252;28;20170;-77
2021/01/23 09:16:47;;;;;;;8.43;6.40;;;;;;;;;;5036341;28;20436;-76
2021/01/23 09:19:13;;;;;;;8.27;5.72;;;;;;;;;;5034194;28;20179;-76
2021/01/23 09:21:39;;;;;;;10.18;6.32;;;;;;;;;;5037076;28;20178;-76
2021/01/23 09:24:07;;;;;;;9.27;6.47;;;;;;;;;;5036121;28;20261;-76
2021/01/23 09:26:33;;;;;;;9.20;6.63;;;;;;;;;;5036700;28;20528;-76
2021/01/23 09:28:59;;;;;;;12.20;7.82;;;;;;;;;;5036290;28;20573;-77
2021/01/23 09:31:25;;;;;;;10.70;6.60;;;;;;;;;;5036669;28;20185;-77
2021/01/23 09:33:51;;;;;;;9.75;6.90;;;;;;;;;;5036535;28;20178;-77
2021/01/23 09:36:17;;;;;;;7.97;6.40;;;;;;;;;;5036599;28;20166;-75
2021/01/23 09:38:43;;;;;;;10.48;7.03;;;;;;;;;;5036168;28;20427;-75
2021/01/23 09:41:10;;;;;;;15.43;7.63;;;;;;;;;;5036297;28;20178;-75
2021/01/23 09:43:36;;;;;;;7.22;5.45;;;;;;;;;;5036724;28;20901;-74
2021/01/23 09:46:02;;;;;;;8.68;6.30;;;;;;;;;;5036421;28;20600;-75
2021/01/23 09:48:28;;;;;;;8.35;5.75;;;;;;;;;;5036149;28;20643;-75
2021/01/23 09:50:54;;;;;;;9.50;6.97;;;;;;;;;;5036257;28;20265;-75
2021/01/23 09:53:20;;;;;;;10.52;6.28;;;;;;;;;;5036260;28;20670;-76
2021/01/23 09:55:46;;;;;;;9.37;6.00;;;;;;;;;;5036765;28;20181;-76
2021/01/23 09:58:12;;;;;;;8.93;5.97;;;;;;;;;;5036138;28;20424;-75
2021/01/23 10:00:38;;;;;;;6.53;5.53;;;;;;;;;;5036011;28;20751;-75
2021/01/23 10:03:04;;;;;;;7.68;6.03;;;;;;;;;;5035900;28;20178;-76
2021/01/23 10:05:31;;;;;;;6.50;5.32;;;;;;;;;;5035772;28;20174;-75
2021/01/23 10:07:57;;;;;;;6.28;4.78;;;;;;;;;;5035470;28;20712;-73
2021/01/23 10:10:24;;;;;;;8.73;5.60;;;;;;;;;;5035877;28;20190;-75
2021/01/23 10:12:50;;;;;;;8.48;4.85;;;;;;;;;;5035660;28;20464;-74
2021/01/23 10:15:16;;;;;;;7.80;5.05;;;;;;;;;;5035750;28;20574;-76
2021/01/23 10:17:42;;;;;;;8.00;5.20;;;;;;;;;;5034311;28;20198;-76
2021/01/23 10:20:08;;;;;;;6.53;4.47;;;;;;;;;;5035693;28;20616;-75
2021/01/23 10:22:34;;;;;;;8.15;5.03;;;;;;;;;;5035719;28;20411;-76
2021/01/23 10:25:00;;;;;;;5.73;4.50;;;;;;;;;;5035634;28;20253;-76
2021/01/23 10:27:26;;;;;;;3.90;3.53;;;;;;;;;;5033781;28;20425;-76
2021/01/23 10:29:53;;;;;;;4.70;3.85;;;;;;;;;;5035508;28;20492;-77
2021/01/23 10:32:18;;;;;;;5.63;4.40;;;;;;;;;;5035653;28;20300;-75
2021/01/23 10:34:45;;;;;;;5.10;4.30;;;;;;;;;;5035778;28;20901;-76
2021/01/23 10:37:11;;;;;;;4.30;3.90;;;;;;;;;;5035238;28;20429;-76
2021/01/23 10:39:37;;;;;;;4.30;3.87;;;;;;;;;;5035223;28;20409;-74
2021/01/23 10:42:03;;;;;;;4.30;3.57;;;;;;;;;;5035534;28;20462;-75
2021/01/23 10:44:30;;;;;;;4.07;3.63;;;;;;;;;;5035182;28;20409;-76
2021/01/23 10:46:56;;;;;;;4.60;3.47;;;;;;;;;;5035060;28;20410;-76
2021/01/23 10:49:22;;;;;;;4.40;3.57;;;;;;;;;;5035201;28;20409;-76
2021/01/23 10:51:48;;;;;;;4.30;3.40;;;;;;;;;;5034951;28;20530;-76
2021/01/23 10:54:16;;;;;;;5.83;3.27;;;;;;;;;;5034930;28;20412;-76
2021/01/23 10:56:45;;;;;;;3.80;3.13;;;;;;;;;;5034715;28;20409;-75
2021/01/23 10:59:11;;;;;;;3.90;3.00;;;;;;;;;;5035188;28;20419;-76
2021/01/23 11:01:37;;;;;;;6.43;3.03;;;;;;;;;;5034801;28;20500;-76
2021/01/23 11:04:03;;;;;;;4.20;2.83;;;;;;;;;;5034977;28;20428;-76
2021/01/23 11:06:29;;;;;;;2.50;2.30;;;;;;;;;;5034843;28;20751;-76
2021/01/23 11:08:55;;;;;;;4.13;2.90;;;;;;;;;;5034615;28;20494;-76
2021/01/23 11:11:21;;;;;;;4.40;2.90;;;;;;;;;;5034609;28;20415;-76
2021/01/23 11:13:47;;;;;;;3.63;2.37;;;;;;;;;;5034880;28;20402;-77
2021/01/23 11:16:13;;;;;;;3.00;2.60;;;;;;;;;;5034579;28;20462;-76
2021/01/23 11:18:39;;;;;;;4.40;2.60;;;;;;;;;;5034443;28;20417;-76
2021/01/23 11:21:05;;;;;;;2.80;2.30;;;;;;;;;;5034580;28;20428;-75
2021/01/23 11:23:31;;;;;;;3.10;2.47;;;;;;;;;;5034489;28;20413;-76
2021/01/23 11:25:57;;;;;;;3.17;2.67;;;;;;;;;;5034310;28;20778;-75
2021/01/23 11:28:23;;;;;;;2.93;2.63;;;;;;;;;;5033944;28;20432;-77
2021/01/23 11:30:53;;;;;;;2.60;2.05;;;;;;;;;;5034374;28;20459;-77
2021/01/23 11:33:19;;;;;;;2.50;1.52;;;;;;;;;;5033441;28;20238;-77
2021/01/23 11:35:45;;;;;;;4.68;2.10;;;;;;;;;;5033194;28;20217;-77
2021/01/23 11:38:11;;;;;;;2.60;1.87;;;;;;;;;;5033521;28;20251;-77
2021/01/23 11:40:37;;;;;;;1.92;1.75;;;;;;;;;;5034258;28;20417;-76
2021/01/23 11:43:03;;;;;;;5.30;2.17;;;;;;;;;;5034288;28;20185;-77
2021/01/23 11:45:29;;;;;;;4.38;1.52;;;;;;;;;;5034107;28;20440;-76
2021/01/23 11:47:55;;;;;;;2.00;1.80;;;;;;;;;;5033511;28;20194;-76
2021/01/23 11:50:21;;;;;;;3.20;1.90;;;;;;;;;;5033964;28;20181;-77
2021/01/23 11:52:47;;;;;;;2.00;1.20;;;;;;;;;;5033876;28;20452;-77
2021/01/23 11:55:13;;;;;;;2.85;1.90;;;;;;;;;;5032633;28;20264;-77
2021/01/23 11:57:39;;;;;;;2.35;1.67;;;;;;;;;;5033846;28;20281;-77
2021/01/23 12:00:06;;;;;;;5.57;1.63;;;;;;;;;;5033892;28;20216;-77
2021/01/23 12:02:32;;;;;;;3.45;1.60;;;;;;;;;;5033840;28;20205;-78
2021/01/23 12:04:58;;;;;;;1.63;1.37;;;;;;;;;;5033856;28;20594;-77
2021/01/23 12:07:24;;;;;;;1.80;1.50;;;;;;;;;;5033340;28;20429;-76
2021/01/23 12:09:50;;;;;;;2.88;1.30;;;;;;;;;;5033538;28;20435;-76
2021/01/23 12:12:16;;;;;;;2.60;1.17;;;;;;;;;;5033529;28;20202;-76
2021/01/23 12:14:42;;;;;;;2.30;1.40;;;;;;;;;;5032446;28;20412;-76
2021/01/23 12:17:08;;;;;;;2.58;1.48;;;;;;;;;;5033301;28;20952;-76
2021/01/23 12:19:34;;;;;;;2.30;1.77;;;;;;;;;;5033510;28;20166;-76
2021/01/23 12:22:00;;;;;;;1.88;1.15;;;;;;;;;;5033505;28;20170;-76
2021/01/23 12:24:26;;;;;;;2.45;1.10;;;;;;;;;;5033384;28;20185;-76
2021/01/23 12:26:52;;;;;;;2.83;1.85;;;;;;;;;;5033164;28;20193;-76
2021/01/23 12:29:18;;;;;;;3.97;1.90;;;;;;;;;;5033436;28;20210;-77
2021/01/23 12:31:44;;;;;;;2.10;1.43;;;;;;;;;;5033164;28;20637;-75
2021/01/23 12:34:11;;;;;;;4.80;2.70;;;;;;;;;;5033092;28;20413;-76
2021/01/23 12:36:37;;;;;;;1.83;1.23;;;;;;;;;;5032730;28;20409;-76
2021/01/23 12:39:03;;;;;;;2.70;1.38;;;;;;;;;;5033137;28;20194;-75
2021/01/23 12:41:29;;;;;;;1.45;1.23;;;;;;;;;;5033413;28;20182;-76
2021/01/23 12:43:55;;;;;;;3.23;1.53;;;;;;;;;;5033215;28;20220;-75
2021/01/23 12:46:21;;;;;;;2.90;1.30;;;;;;;;;;5033159;28;20405;-75
2021/01/23 12:48:49;;;;;;;1.83;1.27;;;;;;;;;;5032956;28;20507;-75
2021/01/23 12:51:17;;;;;;;6.50;2.00;;;;;;;;;;5032451;28;20440;-74
2021/01/23 12:53:43;;;;;;;6.50;1.70;;;;;;;;;;5033354;28;20186;-76
2021/01/23 12:56:09;;;;;;;3.35;1.65;;;;;;;;;;5033145;28;20209;-76
2021/01/23 12:58:35;;;;;;;1.50;1.40;;;;;;;;;;5032610;28;20217;-76
2021/01/23 13:01:01;;;;;;;3.43;1.70;;;;;;;;;;5033149;28;20512;-75
2021/01/23 13:03:27;;;;;;;3.90;1.83;;;;;;;;;;5033360;28;20404;-75
2021/01/23 13:05:53;;;;;;;2.53;1.40;;;;;;;;;;5033120;28;20405;-75
2021/01/23 13:08:19;;;;;;;3.00;1.33;;;;;;;;;;5032717;28;20835;-78
2021/01/23 13:10:45;;;;;;;2.30;1.30;;;;;;;;;;5032757;28;20546;-75
2021/01/23 13:13:11;;;;;;;1.70;1.13;;;;;;;;;;5033022;28;20467;-74
2021/01/23 13:15:37;;;;;;;1.70;1.50;;;;;;;;;;5033020;28;20206;-77
2021/01/23 13:18:03;;;;;;;1.83;1.40;;;;;;;;;;5032528;28;20232;-74
2021/01/23 13:20:29;;;;;;;1.90;1.00;;;;;;;;;;5032522;28;20409;-76
2021/01/23 13:22:55;;;;;;;1.65;1.25;;;;;;;;;;5032762;28;20455;-75
2021/01/23 13:25:22;;;;;;;2.45;1.45;;;;;;;;;;5033012;28;20185;-74
2021/01/23 13:27:48;;;;;;;2.60;1.42;;;;;;;;;;5031214;28;20202;-75
2021/01/23 13:30:14;;;;;;;1.80;1.47;;;;;;;;;;5032792;28;20252;-74
2021/01/23 13:32:45;;;;;;;2.25;1.70;;;;;;;;;;5032607;28;20984;-76
2021/01/23 13:35:12;;;;;;;2.58;1.55;;;;;;;;;;5032909;28;20178;-76
2021/01/23 13:37:38;;;;;;;2.17;1.83;;;;;;;;;;5032422;28;20194;-76
2021/01/23 13:40:04;;;;;;;3.08;1.50;;;;;;;;;;5032767;28;20228;-75
2021/01/23 13:42:30;;;;;;;2.75;1.50;;;;;;;;;;5032756;28;20185;-75
2021/01/23 13:44:56;;;;;;;1.80;1.30;;;;;;;;;;5031856;28;20186;-75
2021/01/23 13:47:22;;;;;;;1.70;1.20;;;;;;;;;;5031759;28;20437;-76
2021/01/23 13:49:48;;;;;;;2.47;1.67;;;;;;;;;;5032074;28;20825;-76
2021/01/23 13:52:14;;;;;;;3.15;1.65;;;;;;;;;;5032728;28;20449;-76
2021/01/23 13:54:40;;;;;;;3.23;1.47;;;;;;;;;;5032748;28;20636;-75
2021/01/23 13:57:06;;;;;;;2.97;1.70;;;;;;;;;;5032262;28;20424;-76
2021/01/23 13:59:32;;;;;;;2.55;1.58;;;;;;;;;;5032500;28;20228;-76
2021/01/23 14:01:58;;;;;;;4.37;1.40;;;;;;;;;;5034307;28;20236;-76
2021/01/23 14:04:24;;;;;;;4.00;1.63;;;;;;;;;;5036078;28;20873;-76
2021/01/23 14:06:50;;;;;;;2.90;1.30;;;;;;;;;;5035693;28;20417;-75
2021/01/23 14:09:16;;;;;;;1.90;1.33;;;;;;;;;;5034683;28;20482;-76
2021/01/23 14:11:42;;;;;;;4.40;1.65;;;;;;;;;;5035836;28;20495;-76
2021/01/23 14:14:08;;;;;;;3.90;1.27;;;;;;;;;;5035827;28;20217;-76
2021/01/23 14:16:34;;;;;;;2.37;1.50;;;;;;;;;;5035424;28;20410;-76
2021/01/23 14:19:00;;;;;;;2.13;1.40;;;;;;;;;;5033973;28;20463;-77
2021/01/23 14:21:26;;;;;;;2.73;1.40;;;;;;;;;;5035697;28;20178;-75
2021/01/23 14:23:53;;;;;;;2.10;1.40;;;;;;;;;;5035699;28;20413;-76
2021/01/23 14:26:19;;;;;;;1.70;1.50;;;;;;;;;;5035838;28;20182;-76
2021/01/23 14:28:45;;;;;;;3.00;1.50;;;;;;;;;;5035270;28;20198;-76
2021/01/23 14:31:11;;;;;;;1.65;1.20;;;;;;;;;;5035169;28;20203;-76
2021/01/23 14:33:37;;;;;;;1.10;1.00;;;;;;;;;;5035198;28;20565;-76
2021/01/23 14:36:05;;;;;;;1.73;1.05;;;;;;;;;;5035827;28;20401;-76
2021/01/23 14:38:32;;;;;;;2.00;1.40;;;;;;;;;;5035093;28;20192;-75
2021/01/23 14:40:58;;;;;;;2.78;1.35;;;;;;;;;;5035672;28;20177;-76